Time;durP1;ratioP1;P1;durP2;ratioP2;P2;SDS_P1;SDS_P2;PMS_P1;PMS_P2;Temp;Humidity;BMP_temperature;BMP_pressure;BME280_temperature;BME280_humidity;BME280_pressure;Samples;Min_cycle;Max_cycle;Signal;HPM_P1;HPM_P2
2022/03/01 00:00:20;;;;;;;17.00;10.68;;;;;;;4.23;64.18;101003.16;5051221;28;20040;-88
2022/03/01 00:02:46;;;;;;;16.60;10.40;;;;;;;4.20;64.77;100998.84;5033867;28;20822;-89
2022/03/01 00:05:11;;;;;;;17.05;10.40;;;;;;;4.19;64.53;100998.94;5051061;28;20497;-89
2022/03/01 00:07:37;;;;;;;16.70;9.85;;;;;;;4.18;64.35;100991.91;5034335;28;20150;-88
2022/03/01 00:10:03;;;;;;;17.83;10.30;;;;;;;4.15;64.82;100997.34;5034601;28;20029;-89
2022/03/01 00:12:28;;;;;;;16.90;10.43;;;;;;;4.11;64.34;100994.84;5051219;28;20040;-88
2022/03/01 00:14:54;;;;;;;15.15;9.18;;;;;;;4.08;64.32;100992.34;5034043;28;20063;-89
2022/03/01 00:17:19;;;;;;;15.68;9.60;;;;;;;4.14;64.37;100993.00;5033890;28;20082;-89
2022/03/01 00:19:44;;;;;;;15.52;10.38;;;;;;;4.10;64.49;100994.94;5034150;28;20052;-89
2022/03/01 00:22:09;;;;;;;15.48;10.02;;;;;;;4.10;64.55;100994.94;5033798;28;20055;-88
2022/03/01 00:24:35;;;;;;;13.15;9.20;;;;;;;4.13;64.72;100994.78;5034351;28;20082;-89
2022/03/01 00:27:01;;;;;;;13.35;9.48;;;;;;;4.14;64.73;101000.94;5033690;28;20036;-89
2022/03/01 00:29:26;;;;;;;13.35;8.70;;;;;;;4.09;64.65;100998.50;5025849;28;20032;-89
2022/03/01 00:31:51;;;;;;;14.18;9.10;;;;;;;4.08;64.36;100999.44;5033678;28;20960;-88
2022/03/01 00:34:17;;;;;;;14.68;9.48;;;;;;;4.04;64.54;101000.50;5033639;28;20115;-89
2022/03/01 00:36:42;;;;;;;15.75;8.88;;;;;;;3.99;64.28;101002.50;5032395;28;20028;-89
2022/03/01 00:39:08;;;;;;;13.38;8.85;;;;;;;3.98;64.26;101006.09;5050145;28;20024;-89
2022/03/01 00:41:34;;;;;;;12.48;8.77;;;;;;;3.98;64.56;101004.28;5033307;28;20028;-89
2022/03/01 00:43:59;;;;;;;12.60;8.68;;;;;;;3.93;64.32;101003.66;5033124;28;20035;-89
2022/03/01 00:46:26;;;;;;;15.07;9.10;;;;;;;3.94;64.26;101002.72;5033553;28;20401;-89
2022/03/01 00:48:55;;;;;;;12.85;9.00;;;;;;;3.96;64.83;101000.84;5025337;28;20405;-89
2022/03/01 00:51:21;;;;;;;11.75;8.32;;;;;;;3.94;64.40;101004.50;5032436;28;20043;-88
2022/03/01 00:53:46;;;;;;;14.98;9.70;;;;;;;3.91;65.04;101004.66;5033060;28;20036;-89
2022/03/01 00:56:12;;;;;;;14.93;9.43;;;;;;;3.90;64.44;101008.22;5030091;28;20047;-89
2022/03/01 00:58:37;;;;;;;12.65;8.98;;;;;;;3.90;64.30;101010.88;5013452;28;20056;-88
2022/03/01 01:01:02;;;;;;;13.40;8.93;;;;;;;3.88;64.49;101005.66;5029995;28;20567;-89
2022/03/01 01:03:28;;;;;;;12.95;8.80;;;;;;;3.89;64.83;101009.16;5013251;28;20058;-89
2022/03/01 01:05:53;;;;;;;12.98;9.20;;;;;;;3.92;65.23;101011.66;5029957;28;20068;-89
2022/03/01 01:08:19;;;;;;;13.93;9.20;;;;;;;3.91;64.61;101005.50;5029817;28;20496;-87
2022/03/01 01:10:44;;;;;;;13.02;9.02;;;;;;;3.90;64.88;101008.22;5013421;28;20064;-88
2022/03/01 01:13:10;;;;;;;13.13;8.90;;;;;;;3.84;64.81;101006.72;5013407;28;20036;-89
2022/03/01 01:15:35;;;;;;;11.75;8.65;;;;;;;3.86;65.01;100996.06;5013782;28;20090;-89
2022/03/01 01:18:00;;;;;;;13.02;9.10;;;;;;;3.85;65.01;100997.00;5012543;28;20045;-88
2022/03/01 01:20:26;;;;;;;12.27;7.95;;;;;;;3.86;64.53;100993.41;5013573;28;20035;-88
2022/03/01 01:22:52;;;;;;;13.95;8.63;;;;;;;3.86;64.62;100990.78;5012462;28;20106;-89
2022/03/01 01:25:23;;;;;;;11.10;8.35;;;;;;;3.82;64.29;100983.91;5029810;28;20028;-89
2022/03/01 01:27:52;;;;;;;10.98;7.90;;;;;;;3.78;64.33;100981.41;5012303;28;20682;-89
2022/03/01 01:30:21;;;;;;;12.05;8.70;;;;;;;3.75;64.39;100989.44;5012695;28;20047;-88
2022/03/01 01:32:49;;;;;;;;;;;;;;;3.78;64.84;100977.88;5013090;28;20040;-89
2022/03/01 01:35:16;;;;;;;11.85;8.43;;;;;;;3.77;64.88;100971.72;5013228;28;19913;-89
2022/03/01 01:37:42;;;;;;;13.68;8.38;;;;;;;3.75;64.87;100978.00;5021360;28;20060;-89
2022/03/01 01:40:11;;;;;;;11.40;8.48;;;;;;;3.76;65.32;100977.94;5012435;28;20446;-89
2022/03/01 01:42:36;;;;;;;11.85;8.32;;;;;;;3.74;65.16;100973.63;5012393;28;20049;-89
2022/03/01 01:45:02;;;;;;;12.73;8.73;;;;;;;3.73;65.03;100974.56;5028970;28;20170;-89
2022/03/01 01:47:27;;;;;;;12.95;8.57;;;;;;;3.71;65.18;100976.44;5028517;28;20041;-89
2022/03/01 01:49:53;;;;;;;11.48;7.90;;;;;;;3.73;65.66;100977.22;5029458;28;20032;-89
2022/03/01 01:52:18;;;;;;;13.43;9.35;;;;;;;3.74;65.17;100969.22;5028700;28;20156;-89
2022/03/01 01:54:44;;;;;;;15.32;9.30;;;;;;;3.74;65.02;100973.63;5012350;28;20063;-89
2022/03/01 01:57:18;;;;;;;13.05;8.57;;;;;;;3.75;65.24;100972.72;5031330;28;20052;-89
2022/03/01 01:59:44;;;;;;;12.00;8.25;;;;;;;3.72;65.02;100965.78;5032556;28;20044;-89
2022/03/01 02:02:19;;;;;;;11.57;7.80;;;;;;;3.71;64.80;100966.72;5031491;28;20029;-89
2022/03/01 02:04:45;;;;;;;11.90;8.25;;;;;;;3.64;64.80;100969.69;5030915;28;20071;-89
2022/03/01 02:07:11;;;;;;;14.15;9.00;;;;;;;3.71;65.10;100971.13;5024181;28;20032;-88
2022/03/01 02:09:36;;;;;;;11.60;8.68;;;;;;;3.73;65.05;100966.63;5032221;28;20032;-89
2022/03/01 02:12:02;;;;;;;14.95;8.75;;;;;;;3.73;65.49;100958.69;5048023;28;20033;-89
2022/03/01 02:14:30;;;;;;;15.95;9.05;;;;;;;3.67;65.67;100949.25;5032286;28;20154;-89
2022/03/01 02:16:55;;;;;;;12.38;7.82;;;;;;;3.68;65.42;100940.41;5031453;28;20028;-89
2022/03/01 02:19:20;;;;;;;12.38;8.25;;;;;;;3.66;65.44;100934.31;5031582;28;20029;-89
2022/03/01 02:21:51;;;;;;;11.27;7.40;;;;;;;3.65;64.99;100947.63;5030859;28;20457;-89
2022/03/01 02:24:18;;;;;;;12.55;7.95;;;;;;;3.68;65.09;100952.75;5039394;28;20032;-89
2022/03/01 02:26:43;;;;;;;11.13;7.70;;;;;;;3.70;65.35;100964.13;5030536;28;20054;-89
2022/03/01 02:29:09;;;;;;;11.63;7.90;;;;;;;3.72;64.83;100951.69;5031498;28;20036;-89
2022/03/01 02:31:34;;;;;;;11.45;7.70;;;;;;;3.74;65.04;100949.84;5040584;28;20072;-89
2022/03/01 02:34:00;;;;;;;11.75;7.45;;;;;;;3.64;65.06;100944.13;5031066;28;20079;-89
2022/03/01 02:36:25;;;;;;;11.55;7.80;;;;;;;3.67;65.08;100933.41;5031431;28;20032;-89
2022/03/01 02:38:50;;;;;;;13.32;7.85;;;;;;;3.60;64.85;100944.31;5023781;28;20103;-89
2022/03/01 02:41:16;;;;;;;14.05;7.80;;;;;;;3.62;64.73;100945.09;5047451;28;20652;-89
2022/03/01 02:43:41;;;;;;;10.98;7.68;;;;;;;3.61;64.52;100941.59;5031134;28;20098;-89
2022/03/01 02:46:07;;;;;;;13.70;7.82;;;;;;;3.61;64.26;100943.41;5030988;28;20025;-90
2022/03/01 02:48:32;;;;;;;13.02;8.65;;;;;;;3.62;64.96;100934.53;5047899;28;20111;-89
2022/03/01 02:50:57;;;;;;;11.52;8.02;;;;;;;3.65;64.59;100931.75;5030646;28;20029;-89
2022/03/01 02:53:23;;;;;;;12.55;8.00;;;;;;;3.65;63.98;100929.97;5031327;28;20128;-89
2022/03/01 02:55:48;;;;;;;11.13;7.28;;;;;;;3.69;64.77;100926.25;5030626;28;20627;-89
2022/03/01 02:58:15;;;;;;;12.63;7.88;;;;;;;3.66;64.00;100914.94;5030457;28;20036;-89
2022/03/01 03:00:42;;;;;;;11.18;7.53;;;;;;;3.63;64.82;100918.59;5030720;28;20394;-89
2022/03/01 03:03:07;;;;;;;11.45;8.20;;;;;;;3.62;64.33;100918.66;5030168;28;20032;-89
2022/03/01 03:05:32;;;;;;;11.05;7.80;;;;;;;3.63;64.74;100928.31;5031425;28;20031;-89
2022/03/01 03:07:58;;;;;;;13.10;8.25;;;;;;;3.62;63.79;100916.03;5030604;28;20089;-89
2022/03/01 03:10:23;;;;;;;12.20;8.07;;;;;;;3.54;63.48;100916.38;5031114;28;20119;-89
2022/03/01 03:12:48;;;;;;;10.63;7.43;;;;;;;3.58;64.04;100911.81;5030025;28;20105;-89
2022/03/01 03:15:14;;;;;;;9.70;7.50;;;;;;;3.52;64.01;100914.72;5030358;28;20428;-89
2022/03/01 03:17:41;;;;;;;11.00;7.65;;;;;;;3.54;64.27;100904.94;5030724;28;20238;-89
2022/03/01 03:20:08;;;;;;;10.70;6.95;;;;;;;3.55;63.59;100910.16;5030723;28;20070;-88
2022/03/01 03:22:34;;;;;;;9.60;6.97;;;;;;;3.62;62.18;100897.50;5030564;28;20024;-89
2022/03/01 03:25:00;;;;;;;10.60;7.22;;;;;;;3.65;61.73;100892.94;5030764;28;20182;-89
2022/03/01 03:27:25;;;;;;;10.55;7.03;;;;;;;3.69;61.39;100894.50;5030369;28;20120;-89
2022/03/01 03:29:52;;;;;;;10.40;6.57;;;;;;;3.74;60.73;100886.34;5030513;28;20127;-89
2022/03/01 03:32:17;;;;;;;10.25;6.90;;;;;;;3.81;60.46;100889.59;5030697;28;20097;-89
2022/03/01 03:34:43;;;;;;;8.27;6.45;;;;;;;3.86;60.06;100883.16;5030617;28;20108;-89
2022/03/01 03:37:08;;;;;;;10.32;6.53;;;;;;;3.87;59.58;100882.22;5030781;28;20113;-89
2022/03/01 03:39:33;;;;;;;8.90;6.30;;;;;;;3.94;59.58;100888.94;5030983;28;20221;-89
2022/03/01 03:41:59;;;;;;;11.18;7.18;;;;;;;3.89;59.13;100896.25;5030598;28;20619;-89
2022/03/01 03:44:24;;;;;;;11.23;6.88;;;;;;;3.85;59.69;100905.25;5030966;28;20901;-89
2022/03/01 03:46:49;;;;;;;10.05;7.15;;;;;;;3.78;59.64;100915.28;5030537;28;20036;-89
2022/03/01 03:49:15;;;;;;;9.15;6.90;;;;;;;3.68;60.49;100913.94;5030017;28;20127;-89
2022/03/01 03:51:40;;;;;;;12.27;6.97;;;;;;;3.64;60.87;100920.31;5031051;28;20032;-89
2022/03/01 03:54:06;;;;;;;10.25;7.50;;;;;;;3.64;61.81;100917.66;5030024;28;20036;-89
2022/03/01 03:56:31;;;;;;;11.25;7.07;;;;;;;3.65;62.62;100913.22;5030167;28;20406;-89
2022/03/01 03:58:58;;;;;;;10.50;7.25;;;;;;;3.61;62.93;100916.94;5029769;28;20143;-89
2022/03/01 04:01:23;;;;;;;10.65;7.57;;;;;;;3.50;63.05;100916.59;5030741;28;20032;-89
2022/03/01 04:03:50;;;;;;;11.68;7.13;;;;;;;3.39;62.93;100915.28;5030293;28;20501;-89
2022/03/01 04:06:15;;;;;;;10.82;7.72;;;;;;;3.50;64.07;100917.44;5030298;28;20145;-89
2022/03/01 04:08:41;;;;;;;10.60;7.53;;;;;;;3.51;63.40;100910.38;5030179;28;20127;-89
2022/03/01 04:11:06;;;;;;;8.73;6.70;;;;;;;3.54;64.11;100918.16;5032861;28;20469;-89
2022/03/01 04:13:31;;;;;;;10.10;7.35;;;;;;;3.50;63.76;100919.22;5034270;28;20020;-90
2022/03/01 04:15:57;;;;;;;10.38;7.53;;;;;;;3.50;64.18;100912.16;5034393;28;20027;-89
2022/03/01 04:18:22;;;;;;;10.93;7.03;;;;;;;3.51;64.07;100913.00;5034431;28;20025;-89
2022/03/01 04:20:47;;;;;;;10.85;7.25;;;;;;;3.38;64.07;100900.34;5034722;28;20153;-89
2022/03/01 04:23:13;;;;;;;11.80;7.13;;;;;;;3.45;64.21;100907.06;5044521;28;20028;-89
2022/03/01 04:25:38;;;;;;;9.63;6.90;;;;;;;3.46;64.26;100900.88;5039474;28;20496;-89
2022/03/01 04:28:04;;;;;;;11.15;7.22;;;;;;;3.45;64.48;100888.56;5034066;28;20449;-89
2022/03/01 04:30:29;;;;;;;10.80;7.28;;;;;;;3.46;65.01;100886.78;5025958;28;20504;-90
2022/03/01 04:32:55;;;;;;;9.57;7.10;;;;;;;3.43;65.08;100890.44;5034068;28;20040;-89
2022/03/01 04:35:20;;;;;;;9.90;7.05;;;;;;;3.43;64.86;100897.50;5033806;28;20056;-89
2022/03/01 04:37:46;;;;;;;9.80;7.35;;;;;;;3.42;64.55;100901.06;5033512;28;20119;-89
2022/03/01 04:40:13;;;;;;;10.05;6.78;;;;;;;3.34;65.02;100898.78;5033939;28;20052;-89
2022/03/01 04:42:39;;;;;;;11.07;7.38;;;;;;;3.34;65.56;100904.06;5033440;28;20085;-90
2022/03/01 04:45:05;;;;;;;11.63;7.13;;;;;;;3.39;65.26;100903.84;5033896;28;20406;-89
2022/03/01 04:47:30;;;;;;;10.93;7.07;;;;;;;3.39;65.72;100895.94;5033100;28;20067;-89
2022/03/01 04:49:56;;;;;;;10.63;7.20;;;;;;;3.39;65.44;100895.94;5033632;28;20487;-90
2022/03/01 04:52:21;;;;;;;9.77;7.22;;;;;;;3.41;65.94;100900.22;5033007;28;20033;-89
2022/03/01 04:54:46;;;;;;;12.07;7.38;;;;;;;3.36;66.03;100899.56;5033383;28;20083;-89
2022/03/01 04:57:12;;;;;;;11.05;7.45;;;;;;;3.41;65.96;100896.72;5032583;28;20119;-89
2022/03/01 04:59:37;;;;;;;10.75;6.78;;;;;;;3.40;66.17;100887.94;5033418;28;20107;-90
2022/03/01 05:02:03;;;;;;;10.48;6.82;;;;;;;3.41;66.30;100894.06;5042338;28;20113;-89
2022/03/01 05:04:29;;;;;;;10.52;7.30;;;;;;;3.40;66.20;100895.84;5033539;28;20028;-90
2022/03/01 05:06:54;;;;;;;10.50;7.47;;;;;;;3.42;66.13;100894.00;5033001;28;20546;-89
2022/03/01 05:09:24;;;;;;;11.60;7.15;;;;;;;3.41;66.42;100894.94;5024862;28;20115;-89
2022/03/01 05:11:50;;;;;;;13.15;7.30;;;;;;;3.44;66.86;100891.28;5049819;28;20063;-90
2022/03/01 05:14:17;;;;;;;9.00;6.75;;;;;;;3.39;66.54;100896.78;5032992;28;20024;-89
2022/03/01 05:16:42;;;;;;;10.88;8.07;;;;;;;3.38;66.68;100897.72;5033314;28;20127;-89
2022/03/01 05:19:09;;;;;;;12.70;8.90;;;;;;;3.31;67.35;100890.09;5032496;28;20128;-89
2022/03/01 05:21:35;;;;;;;11.13;7.88;;;;;;;3.38;67.11;100899.50;5032403;28;20024;-89
2022/03/01 05:24:00;;;;;;;13.43;8.40;;;;;;;3.40;67.58;100901.13;5032862;28;20039;-89
2022/03/01 05:26:26;;;;;;;11.77;7.40;;;;;;;3.40;67.16;100893.22;5049548;28;20028;-90
2022/03/01 05:28:51;;;;;;;10.30;7.10;;;;;;;3.41;67.53;100894.94;5032166;28;20051;-89
2022/03/01 05:31:18;;;;;;;11.27;7.43;;;;;;;3.42;67.12;100904.56;5032643;28;20501;-89
2022/03/01 05:33:43;;;;;;;10.82;7.35;;;;;;;3.42;67.16;100895.78;5032606;28;20047;-89
2022/03/01 05:36:09;;;;;;;11.38;7.28;;;;;;;3.44;67.66;100892.16;5032874;28;20032;-89
2022/03/01 05:38:35;;;;;;;12.45;7.53;;;;;;;3.46;67.50;100892.94;5032820;28;20036;-89
2022/03/01 05:41:00;;;;;;;10.35;7.13;;;;;;;3.47;67.08;100888.50;5032763;28;20062;-90
2022/03/01 05:43:26;;;;;;;9.32;7.32;;;;;;;3.44;67.75;100897.44;5048655;28;20051;-89
2022/03/01 05:45:51;;;;;;;11.18;8.07;;;;;;;3.37;67.14;100890.72;5032274;28;20109;-90
2022/03/01 05:48:16;;;;;;;12.10;7.53;;;;;;;3.30;67.74;100894.53;5031897;28;20048;-89
2022/03/01 05:50:42;;;;;;;10.45;7.50;;;;;;;3.29;67.77;100897.22;5032161;28;20067;-90
2022/03/01 05:53:07;;;;;;;9.95;7.40;;;;;;;3.35;68.14;100891.69;5031298;28;20036;-89
2022/03/01 05:55:33;;;;;;;12.88;8.02;;;;;;;3.33;67.67;100885.63;5032372;28;20535;-89
2022/03/01 05:57:58;;;;;;;10.75;7.30;;;;;;;3.33;68.26;100891.78;5013681;28;20056;-89
2022/03/01 06:00:24;;;;;;;11.90;7.70;;;;;;;3.31;67.90;100887.44;5012914;28;20074;-89
2022/03/01 06:02:50;;;;;;;11.10;7.45;;;;;;;3.32;67.92;100895.34;5028546;28;20044;-89
2022/03/01 06:05:16;;;;;;;12.70;7.90;;;;;;;3.27;67.89;100905.22;5012411;28;20032;-89
2022/03/01 06:07:41;;;;;;;12.75;7.82;;;;;;;3.29;68.00;100895.44;5012465;28;20033;-90
2022/03/01 06:10:07;;;;;;;10.98;7.70;;;;;;;3.34;68.34;100890.84;5012138;28;20028;-90
2022/03/01 06:12:33;;;;;;;11.48;7.85;;;;;;;3.38;68.25;100894.22;5012576;28;20029;-90
2022/03/01 06:14:58;;;;;;;11.88;7.80;;;;;;;3.29;68.52;100906.03;5012334;28;20097;-89
2022/03/01 06:17:24;;;;;;;10.65;7.10;;;;;;;3.30;68.25;100896.31;5012039;28;20082;-89
2022/03/01 06:19:49;;;;;;;10.60;7.72;;;;;;;3.31;68.78;100898.03;5012639;28;20956;-89
2022/03/01 06:22:14;;;;;;;14.25;8.30;;;;;;;3.33;68.85;100907.63;5011534;28;20536;-90
2022/03/01 06:24:41;;;;;;;11.73;7.78;;;;;;;3.34;68.75;100897.91;5012253;28;20984;-89
2022/03/01 06:27:07;;;;;;;12.68;7.95;;;;;;;3.32;68.78;100894.50;5028145;28;20033;-89
2022/03/01 06:29:33;;;;;;;12.60;7.90;;;;;;;3.33;68.80;100898.84;5012184;28;20048;-89
2022/03/01 06:31:58;;;;;;;11.68;7.78;;;;;;;3.32;68.89;100887.41;5028654;28;20482;-89
2022/03/01 06:34:24;;;;;;;11.98;8.05;;;;;;;3.32;68.79;100900.63;5027898;28;20041;-90
2022/03/01 06:36:49;;;;;;;12.00;8.10;;;;;;;3.32;68.86;100902.41;5012000;28;20036;-90
2022/03/01 06:39:14;;;;;;;13.13;8.40;;;;;;;3.34;68.31;100906.72;5011677;28;20039;-88
2022/03/01 06:41:39;;;;;;;12.20;8.98;;;;;;;3.34;68.59;100909.34;5012202;28;20116;-90
2022/03/01 06:44:05;;;;;;;20.17;14.02;;;;;;;3.32;68.38;100911.19;5011366;28;20040;-89
2022/03/01 06:46:30;;;;;;;17.17;13.75;;;;;;;3.36;69.16;100909.28;5028695;28;20033;-90
2022/03/01 06:48:56;;;;;;;15.23;10.65;;;;;;;3.37;69.26;100916.28;5011799;28;20480;-89
2022/03/01 06:51:21;;;;;;;14.25;10.32;;;;;;;3.35;69.35;100916.34;5028193;28;20055;-89
2022/03/01 06:53:46;;;;;;;18.00;10.00;;;;;;;3.34;68.94;100913.78;5011098;28;20040;-89
2022/03/01 06:56:12;;;;;;;15.55;9.93;;;;;;;3.34;68.97;100912.00;5011912;28;20049;-89
2022/03/01 06:58:38;;;;;;;14.73;9.90;;;;;;;3.35;69.23;100911.06;5011935;28;20094;-89
2022/03/01 07:01:03;;;;;;;14.20;10.07;;;;;;;3.31;69.32;100919.16;5011658;28;20049;-90
2022/03/01 07:03:29;;;;;;;15.52;9.95;;;;;;;3.32;69.26;100916.50;5011843;28;20379;-90
2022/03/01 07:05:54;;;;;;;19.63;9.73;;;;;;;3.34;69.12;100911.13;5011728;28;20040;-90
2022/03/01 07:08:22;;;;;;;16.95;9.23;;;;;;;3.33;69.40;100912.91;5011232;28;20029;-89
2022/03/01 07:10:48;;;;;;;14.60;9.80;;;;;;;3.28;69.31;100914.03;5011675;28;20028;-89
2022/03/01 07:13:13;;;;;;;17.17;9.70;;;;;;;3.32;69.63;100915.63;5011397;28;20116;-90
2022/03/01 07:15:39;;;;;;;18.45;10.05;;;;;;;3.34;70.03;100912.00;5011242;28;20033;-89
2022/03/01 07:18:04;;;;;;;12.88;8.50;;;;;;;3.37;69.87;100908.34;5011927;28;20035;-90
2022/03/01 07:20:30;;;;;;;14.10;8.60;;;;;;;3.37;69.42;100906.56;5011693;28;20139;-89
2022/03/01 07:22:55;;;;;;;13.63;9.10;;;;;;;3.42;70.03;100904.56;5011082;28;20060;-90
2022/03/01 07:25:21;;;;;;;15.52;9.07;;;;;;;3.43;70.17;100905.44;5011492;28;20025;-90
2022/03/01 07:27:49;;;;;;;17.50;9.57;;;;;;;3.45;69.61;100911.50;5011600;28;20031;-90
2022/03/01 07:30:15;;;;;;;15.00;9.05;;;;;;;3.46;69.99;100908.78;5010468;28;20032;-90
2022/03/01 07:32:41;;;;;;;13.75;9.07;;;;;;;3.46;69.65;100918.50;5027911;28;20043;-89
2022/03/01 07:35:06;;;;;;;14.65;9.35;;;;;;;3.43;69.74;100918.66;5011108;28;20406;-90
2022/03/01 07:37:34;;;;;;;10.85;8.20;;;;;;;3.45;70.06;100922.09;5027306;28;20125;-89
2022/03/01 07:40:00;;;;;;;12.82;8.35;;;;;;;3.42;70.75;100920.44;5028343;28;20990;-89
2022/03/01 07:42:25;;;;;;;12.80;8.38;;;;;;;3.48;71.03;100921.94;5011036;28;20117;-90
2022/03/01 07:44:50;;;;;;;11.02;8.05;;;;;;;3.50;71.24;100913.94;5011828;28;20032;-88
2022/03/01 07:47:16;;;;;;;14.30;8.88;;;;;;;3.56;71.08;100926.88;5014599;28;20134;-89
2022/03/01 07:49:43;;;;;;;13.38;8.60;;;;;;;3.56;71.15;100918.94;5015816;28;20398;-87
2022/03/01 07:52:09;;;;;;;15.30;8.75;;;;;;;3.59;71.27;100926.75;5014464;28;20459;-90
2022/03/01 07:54:34;;;;;;;13.25;8.32;;;;;;;3.64;71.58;100924.75;5014737;28;20060;-89
2022/03/01 07:56:59;;;;;;;13.80;9.43;;;;;;;3.69;70.11;100922.75;5024992;28;20564;-90
2022/03/01 07:59:25;;;;;;;14.48;9.82;;;;;;;3.73;69.56;100925.16;5034857;28;20052;-90
2022/03/01 08:01:50;;;;;;;13.25;8.88;;;;;;;3.77;68.83;100918.81;5034087;28;20036;-89
2022/03/01 08:04:15;;;;;;;15.63;9.70;;;;;;;3.80;69.02;100915.19;5034221;28;20029;-90
2022/03/01 08:06:41;;;;;;;15.02;9.30;;;;;;;3.85;70.04;100905.25;5034612;28;20053;-89
2022/03/01 08:09:06;;;;;;;15.57;10.35;;;;;;;3.91;70.73;100914.69;5053469;28;20047;-89
2022/03/01 08:11:31;;;;;;;17.50;10.43;;;;;;;3.95;70.42;100911.81;5035770;28;20034;-90
2022/03/01 08:13:57;;;;;;;14.07;9.80;;;;;;;3.97;70.73;100912.59;5033837;28;20036;-90
2022/03/01 08:16:23;;;;;;;17.65;9.13;;;;;;;4.01;71.00;100908.03;5034264;28;20024;-89
2022/03/01 08:18:48;;;;;;;16.83;9.52;;;;;;;4.03;71.02;100916.75;5033987;28;20111;-89
2022/03/01 08:21:14;;;;;;;12.40;9.20;;;;;;;4.04;71.25;100927.25;5034122;28;20107;-90
2022/03/01 08:23:41;;;;;;;15.65;9.65;;;;;;;4.08;71.33;100922.69;5033889;28;20658;-89
2022/03/01 08:26:06;;;;;;;17.48;9.73;;;;;;;4.15;70.93;100925.91;5033896;28;20028;-89
2022/03/01 08:28:32;;;;;;;12.85;8.90;;;;;;;4.18;71.12;100933.69;5033572;28;20056;-89
2022/03/01 08:30:58;;;;;;;12.95;9.35;;;;;;;4.21;71.67;100933.53;5034597;28;20028;-89
2022/03/01 08:33:24;;;;;;;13.20;9.30;;;;;;;4.26;72.27;100940.34;5033403;28;20033;-89
2022/03/01 08:35:50;;;;;;;14.00;9.63;;;;;;;4.27;72.90;100942.06;5033733;28;20565;-89
2022/03/01 08:38:16;;;;;;;13.57;9.88;;;;;;;4.27;72.40;100947.38;5033363;28;20115;-90
2022/03/01 08:40:41;;;;;;;14.27;10.00;;;;;;;4.25;72.30;100951.84;5050685;28;20062;-89
2022/03/01 08:43:07;;;;;;;15.18;9.90;;;;;;;4.23;72.34;100958.16;5033638;28;20039;-89
2022/03/01 08:45:33;;;;;;;12.93;9.05;;;;;;;4.22;72.35;100959.06;5033605;28;20024;-89
2022/03/01 08:47:59;;;;;;;15.55;9.15;;;;;;;4.23;72.25;100958.16;5049988;28;20075;-89
2022/03/01 08:50:24;;;;;;;15.90;9.73;;;;;;;4.21;72.67;100950.28;5050120;28;20039;-89
2022/03/01 08:52:50;;;;;;;14.15;8.57;;;;;;;4.21;72.74;100941.47;5032313;28;20636;-89
2022/03/01 08:55:16;;;;;;;15.25;9.10;;;;;;;4.22;72.88;100928.16;5031997;28;20370;-92
2022/03/01 08:57:41;;;;;;;13.20;9.07;;;;;;;4.24;72.85;100920.16;5031896;28;20066;-89
2022/03/01 09:00:10;;;;;;;13.10;9.27;;;;;;;4.25;73.19;100912.13;5033416;28;20075;-89
2022/03/01 09:02:36;;;;;;;15.60;9.35;;;;;;;4.27;72.82;100918.25;5032200;28;20024;-89
2022/03/01 09:05:02;;;;;;;17.13;9.68;;;;;;;4.32;73.07;100926.81;5049170;28;20626;-89
2022/03/01 09:07:27;;;;;;;17.33;10.32;;;;;;;4.37;72.83;100934.53;5031777;28;20025;-89
2022/03/01 09:09:52;;;;;;;12.98;9.07;;;;;;;4.37;72.96;100929.25;5032198;28;20032;-89
2022/03/01 09:12:18;;;;;;;13.88;9.25;;;;;;;4.37;73.74;100923.94;5031203;28;20103;-90
2022/03/01 09:14:43;;;;;;;15.00;9.48;;;;;;;4.40;73.82;100929.09;5031940;28;20143;-89
2022/03/01 09:17:09;;;;;;;15.93;9.75;;;;;;;4.49;73.96;100947.19;5025404;28;20385;-90
2022/03/01 09:19:34;;;;;;;14.35;9.55;;;;;;;4.59;74.20;100945.78;5031876;28;20028;-89
2022/03/01 09:22:00;;;;;;;14.93;9.77;;;;;;;4.65;73.30;100937.53;5048346;28;20029;-89
2022/03/01 09:24:25;;;;;;;14.13;9.32;;;;;;;4.68;73.40;100936.53;5031329;28;20637;-89
2022/03/01 09:26:50;;;;;;;16.52;9.60;;;;;;;4.69;73.88;100944.41;5031814;28;20025;-89
2022/03/01 09:29:16;;;;;;;16.65;10.60;;;;;;;4.77;74.41;100944.03;5032332;28;20122;-90
2022/03/01 09:31:41;;;;;;;13.70;9.68;;;;;;;4.82;74.35;100951.75;5032748;28;20035;-89
2022/03/01 09:34:07;;;;;;;14.55;9.95;;;;;;;4.85;74.03;100956.91;5032162;28;20032;-89
2022/03/01 09:36:32;;;;;;;16.40;10.57;;;;;;;4.87;73.47;100952.38;5033216;28;20029;-90
2022/03/01 09:38:58;;;;;;;15.52;10.18;;;;;;;4.86;73.25;100956.81;5031796;28;20032;-89
2022/03/01 09:41:23;;;;;;;13.35;10.40;;;;;;;4.86;73.29;100958.63;5032460;28;20028;-89
2022/03/01 09:43:49;;;;;;;15.07;10.07;;;;;;;4.85;73.02;100956.91;5031806;28;20036;-89
2022/03/01 09:46:15;;;;;;;16.30;9.57;;;;;;;4.87;73.07;100957.69;5031989;28;20048;-90
2022/03/01 09:48:40;;;;;;;14.30;9.82;;;;;;;4.88;73.93;100954.09;5049337;28;20490;-90
2022/03/01 09:51:08;;;;;;;13.15;9.52;;;;;;;4.88;73.72;100940.84;5032636;28;20464;-90
2022/03/01 09:53:34;;;;;;;13.25;9.68;;;;;;;4.93;73.70;100950.28;5032811;28;20490;-90
2022/03/01 09:56:04;;;;;;;14.52;9.82;;;;;;;4.96;73.37;100941.31;5024357;28;20036;-90
2022/03/01 09:58:29;;;;;;;15.02;10.02;;;;;;;4.97;73.50;100951.84;5032681;28;20043;-90
2022/03/01 10:00:55;;;;;;;14.43;10.48;;;;;;;4.97;72.86;100943.88;5032059;28;20024;-90
2022/03/01 10:03:20;;;;;;;15.55;10.27;;;;;;;5.01;72.37;100948.09;5031564;28;20058;-90
2022/03/01 10:05:46;;;;;;;17.80;9.82;;;;;;;5.05;72.05;100941.69;5032335;28;20040;-90
2022/03/01 10:08:16;;;;;;;15.57;9.80;;;;;;;5.07;72.31;100950.44;5047514;28;20040;-89
2022/03/01 10:10:52;;;;;;;17.80;10.90;;;;;;;5.12;71.74;100950.19;5031705;28;20481;-90
2022/03/01 10:13:24;;;;;;;18.02;10.52;;;;;;;5.12;71.15;100955.50;5031433;28;20036;-90
2022/03/01 10:16:11;;;;;;;17.05;11.23;;;;;;;5.22;71.64;100962.06;5048330;28;20730;-90
2022/03/01 10:18:39;;;;;;;15.85;10.75;;;;;;;5.20;71.17;100957.75;5040412;28;20036;-90
2022/03/01 10:21:06;;;;;;;16.85;10.30;;;;;;;5.31;71.98;100961.59;5031927;28;20033;-90
2022/03/01 10:23:32;;;;;;;17.75;11.35;;;;;;;5.31;70.51;100964.25;5031690;28;20550;-90
2022/03/01 10:26:08;;;;;;;18.88;11.07;;;;;;;5.29;70.47;100970.56;5048812;28;20036;-89
2022/03/01 10:28:36;;;;;;;19.52;11.70;;;;;;;5.30;70.46;100978.44;5047209;28;20443;-89
2022/03/01 10:31:10;;;;;;;20.52;11.30;;;;;;;5.27;70.48;100973.28;5031661;28;20093;-89
2022/03/01 10:33:35;;;;;;;17.83;11.00;;;;;;;5.33;70.15;100959.72;5040646;28;20020;-90
2022/03/01 10:36:00;;;;;;;18.52;11.07;;;;;;;5.31;69.09;100974.84;5031935;28;20496;-89
2022/03/01 10:38:26;;;;;;;18.25;12.23;;;;;;;5.33;68.98;100980.06;5031167;28;20085;-89
2022/03/01 10:40:59;;;;;;;17.77;11.35;;;;;;;5.34;69.00;100981.78;5031387;28;20043;-89
2022/03/01 10:43:26;;;;;;;20.58;11.55;;;;;;;5.36;69.22;100983.41;5047160;28;20037;-90
2022/03/01 10:45:52;;;;;;;19.70;11.60;;;;;;;5.40;69.16;100980.59;5030636;28;20040;-91
2022/03/01 10:48:29;;;;;;;17.90;11.18;;;;;;;5.45;68.17;100984.72;5030708;28;20223;-90
2022/03/01 10:51:05;;;;;;;18.60;11.35;;;;;;;5.46;67.59;100980.28;5031227;28;20031;-90
2022/03/01 10:53:33;;;;;;;20.10;11.07;;;;;;;5.44;67.91;100974.19;5030482;28;20116;-90
2022/03/01 10:56:04;;;;;;;19.08;10.85;;;;;;;5.48;68.09;100970.44;5039645;28;20468;-89
2022/03/01 10:58:30;;;;;;;15.95;9.82;;;;;;;5.47;68.10;100966.94;5030762;28;20413;-90
2022/03/01 11:00:56;;;;;;;15.15;9.35;;;;;;;5.48;68.06;100975.75;5032694;28;20478;-90
2022/03/01 11:03:22;;;;;;;16.20;9.85;;;;;;;5.49;67.93;100961.56;5030579;28;20024;-89
2022/03/01 11:05:47;;;;;;;15.60;9.65;;;;;;;5.52;68.27;100959.59;5031329;28;20589;-90
2022/03/01 11:08:15;;;;;;;16.80;10.20;;;;;;;5.53;68.03;100955.16;5022612;28;20510;-90
2022/03/01 11:10:41;;;;;;;14.45;8.85;;;;;;;5.54;68.57;100959.50;5047467;28;20047;-90
2022/03/01 11:13:07;;;;;;;15.00;9.98;;;;;;;5.64;66.44;100950.97;5046090;28;20052;-90
2022/03/01 11:15:39;;;;;;;14.48;9.63;;;;;;;5.62;66.03;100952.00;5023052;28;20528;-90
2022/03/01 11:18:41;;;;;;;12.90;8.75;;;;;;;5.61;66.75;100950.28;5046331;28;20041;-89